Aviation Digital Data Service (ADDS)

Output produced by METARs form (1125 UTC 28 September 2021)
found at http://www.aviationweather.gov/metar/data/
 
KEAU 281056Z 00000KT 10SM CLR 09/08 A2998 RMK AO2 SLP153 T00940078
KEAU 281120Z 2812/2912 14005KT P6SM SKC
       
KRNH 281115Z AUTO 12004KT 10SM CLR 10/09 A2997 RMK AO2 T01040086
KRNH 281055Z AUTO 12003KT 10SM CLR 10/09 A2997 RMK AO2 T01020085
KRNH 281035Z AUTO 12003KT 10SM CLR 10/08 A2996 RMK AO2 T01020082
KRNH 281120Z 2812/2912 14006KT P6SM SKC
       
KMSP 281053Z 13005KT 10SM CLR 13/11 A2994 RMK AO2 SLP136 T01330106
KMSP 281120Z 2812/2918 14007KT P6SM SKC